Time;durP1;ratioP1;P1;durP2;ratioP2;P2;SDS_P1;SDS_P2;PMS_P1;PMS_P2;Temp;Humidity;BMP_temperature;BMP_pressure;BME280_temperature;BME280_humidity;BME280_pressure;Samples;Min_cycle;Max_cycle;Signal;HPM_P1;HPM_P2
2023/10/31 00:01:26;;;;;;;;;0.00;0.00;;;;;9.83;100.00;99796.19;6039204;23;46700;-89
2023/10/31 00:04:35;;;;;;;;;0.00;0.00;;;;;9.82;100.00;99802.28;6084493;23;45274;-89
2023/10/31 00:10:48;;;;;;;;;;;;;;;;;;;;;
2023/10/31 00:13:42;;;;;;;;;;;;;;;;;;;;;
2023/10/31 00:16:30;;;;;;;;;0.00;0.00;;;;;9.60;100.00;99786.75;6185140;22;74030;-89
2023/10/31 00:19:46;;;;;;;;;;;;;;;;;;;;;
2023/10/31 00:26:10;;;;;;;;;;;;;;;;;;;;;
2023/10/31 00:29:05;;;;;;;;;0.00;0.00;;;;;9.43;100.00;99797.78;6143946;23;73171;-90
2023/10/31 00:31:46;;;;;;;;;;;;;;;;;;;;;
2023/10/31 00:34:43;;;;;;;;;0.00;0.00;;;;;9.36;100.00;99800.69;6122605;23;71170;-89
2023/10/31 00:37:50;;;;;;;;;0.00;0.00;;;;;9.28;100.00;99793.19;6114335;23;47441;-89
2023/10/31 00:41:17;;;;;;;;;0.00;0.00;;;;;9.29;100.00;99807.88;6142438;23;45462;-89
2023/10/31 00:44:04;;;;;;;;;;;;;;;;;;;;;
2023/10/31 00:47:09;;;;;;;;;;;;;;;;;;;;;
2023/10/31 00:50:18;;;;;;;;;2.00;0.50;;;;;9.15;100.00;99798.00;6144634;23;76628;-90
2023/10/31 00:53:19;;;;;;;;;;;;;;;;;;;;;
2023/10/31 00:56:14;;;;;;;;;0.00;0.00;;;;;9.08;100.00;99793.94;6143074;23;67394;-90
2023/10/31 01:02:43;;;;;;;;;0.00;0.00;;;;;9.09;100.00;99813.81;6244590;22;46482;-89
2023/10/31 01:06:00;;;;;;;;;0.00;0.00;;;;;9.05;100.00;99814.84;6242140;22;45196;-88
2023/10/31 01:08:37;;;;;;;;;0.00;0.00;;;;;8.97;100.00;99806.47;6235618;22;45544;-89
2023/10/31 01:18:07;;;;;;;;;;;;;;;;;;;;;
2023/10/31 01:21:12;;;;;;;;;0.00;0.00;;;;;8.87;100.00;99813.78;6237529;22;45542;-89
2023/10/31 01:30:49;;;;;;;;;;;;;;;;;;;;;
2023/10/31 01:37:19;;;;;;;;;;;;;;;;;;;;;
2023/10/31 01:40:15;;;;;;;;;;;;;;;;;;;;;
2023/10/31 01:50:11;;;;;;;;;;;;;;;;;;;;;
2023/10/31 01:56:53;;;;;;;;;;;;;;;;;;;;;
2023/10/31 02:06:16;;;;;;;;;0.25;0.25;;;;;8.86;100.00;99846.66;6055844;23;46000;-88
2023/10/31 02:15:06;;;;;;;;;0.00;0.00;;;;;9.00;100.00;99850.50;6004522;23;45712;-88
2023/10/31 02:18:21;;;;;;;;;0.00;0.00;;;;;8.94;100.00;99848.97;6003462;23;47020;-88
2023/10/31 02:21:09;;;;;;;;;;;;;;;;;;;;;
2023/10/31 02:27:47;;;;;;;;;;;;;;;;;;;;;
2023/10/31 02:34:26;;;;;;;;;;;;;;;;;;;;;
2023/10/31 02:44:01;;;;;;;;;;;;;;;;;;;;;
2023/10/31 02:53:49;;;;;;;;;;;;;;;;;;;;;
2023/10/31 02:56:39;;;;;;;;;;;;;;;;;;;;;
2023/10/31 02:59:45;;;;;;;;;;;;;;;;;;;;;
2023/10/31 03:02:30;;;;;;;;;0.00;0.00;;;;;9.78;100.00;99854.47;5918408;24;67135;-89
2023/10/31 03:05:37;;;;;;;;;;;;;;;;;;;;;
2023/10/31 03:09:02;;;;;;;;;;;;;;;;;;;;;
2023/10/31 03:15:14;;;;;;;;;0.00;0.00;;;;;9.98;100.00;99867.53;5919341;24;45298;-89
2023/10/31 03:18:05;;;;;;;;;0.00;0.00;;;;;9.96;100.00;99869.34;5947036;23;45563;-89
2023/10/31 03:20:59;;;;;;;;;0.00;0.00;;;;;9.98;100.00;99864.09;6061100;23;47211;-89
2023/10/31 03:23:57;;;;;;;;;0.00;0.00;;;;;10.04;100.00;99874.22;6095256;23;45971;-89
2023/10/31 03:36:22;;;;;;;;;0.50;0.50;;;;;10.23;100.00;99884.72;6241669;22;45359;-89
2023/10/31 03:39:32;;;;;;;;;;;;;;;;;;;;;
2023/10/31 03:42:20;;;;;;;;;0.00;0.00;;;;;10.35;100.00;99899.84;6237020;22;68627;-88
2023/10/31 03:44:51;;;;;;;;;0.00;0.00;;;;;10.32;100.00;99894.78;6241016;22;46115;-88
2023/10/31 03:47:25;;;;;;;;;0.00;0.00;;;;;10.41;100.00;99903.97;6241707;22;45679;-88
2023/10/31 03:50:06;;;;;;;;;0.00;0.00;;;;;10.39;100.00;99901.41;6241366;22;45291;-88
2023/10/31 03:52:34;;;;;;;;;0.00;0.00;;;;;10.42;100.00;99893.50;6241190;22;45336;-89
2023/10/31 03:59:14;;;;;;;;;0.00;0.00;;;;;10.42;100.00;99895.25;6226486;22;45653;-89
2023/10/31 04:01:34;;;;;;;;;0.00;0.00;;;;;10.49;100.00;99917.47;6237844;22;45290;-89
2023/10/31 04:04:25;;;;;;;;;0.00;0.00;;;;;10.52;100.00;99919.13;6241528;22;45565;-89
2023/10/31 04:07:10;;;;;;;;;0.00;0.00;;;;;10.53;100.00;99923.41;6242513;22;45376;-89
2023/10/31 04:10:07;;;;;;;;;0.00;0.00;;;;;10.49;100.00;99916.66;6241586;22;45347;-89
2023/10/31 04:16:20;;;;;;;;;0.00;0.00;;;;;10.56;100.00;99926.72;6149066;23;45618;-88
2023/10/31 04:18:54;;;;;;;;;0.00;0.00;;;;;10.58;100.00;99935.31;6124089;23;47417;-88
2023/10/31 04:21:49;;;;;;;;;;;;;;;;;;;;;
2023/10/31 04:27:26;;;;;;;;;0.25;0.25;;;;;10.60;100.00;99938.69;6148814;23;45296;-89
2023/10/31 04:33:18;;;;;;;;;0.00;0.00;;;;;10.59;100.00;99937.03;6129264;23;45282;-89
2023/10/31 04:35:50;;;;;;;;;0.00;0.00;;;;;10.65;100.00;99954.97;6149312;23;45389;-88
2023/10/31 04:39:03;;;;;;;;;;;;;;;;;;;;;
2023/10/31 04:41:40;;;;;;;;;0.00;0.00;;;;;10.67;100.00;99952.31;6125124;23;75418;-89
2023/10/31 04:44:28;;;;;;;;;0.00;0.00;;;;;10.70;100.00;99956.53;6148886;23;45226;-89
2023/10/31 04:47:23;;;;;;;;;;;;;;;;;;;;;
2023/10/31 04:50:10;;;;;;;;;0.00;0.00;;;;;10.68;100.00;99950.56;6125347;23;70162;-89
2023/10/31 04:52:55;;;;;;;;;;;;;;;;;;;;;
2023/10/31 04:56:08;;;;;;;;;0.00;0.00;;;;;10.80;100.00;99976.06;6260194;22;72783;-89
2023/10/31 04:59:03;;;;;;;;;;;;;;;;;;;;;
2023/10/31 05:02:17;;;;;;;;;0.00;0.00;;;;;10.78;100.00;99964.88;6241525;22;69416;-89
2023/10/31 05:04:52;;;;;;;;;;;;;;;;;;;;;
2023/10/31 05:07:45;;;;;;;;;0.00;0.00;;;;;10.81;100.00;99978.63;6240114;22;72181;-89
2023/10/31 05:10:31;;;;;;;;;3.00;3.00;;;;;10.85;100.00;99967.16;6242154;22;45300;-89
2023/10/31 05:13:16;;;;;;;;;0.00;0.00;;;;;10.82;100.00;99966.44;6242678;22;45272;-89
2023/10/31 05:18:48;;;;;;;;;;;;;;;;;;;;;
2023/10/31 05:22:02;;;;;;;;;0.00;0.00;;;;;10.84;100.00;99960.25;6115178;23;68898;-88
2023/10/31 05:24:42;;;;;;;;;0.00;0.00;;;;;10.90;100.00;99974.78;6114619;23;45443;-89
2023/10/31 05:30:28;;;;;;;;;;;;;;;;;;;;;
2023/10/31 05:33:20;;;;;;;;;1.00;1.00;;;;;10.89;100.00;99980.06;5972145;23;69467;-88
2023/10/31 05:36:04;;;;;;;;;;;;;;;;;;;;;
2023/10/31 05:38:41;;;;;;;;;0.00;0.00;;;;;10.95;100.00;99988.44;5975207;23;74395;-89
2023/10/31 05:41:40;;;;;;;;;0.00;0.00;;;;;10.96;100.00;99984.94;5976078;23;45663;-89
2023/10/31 05:44:21;;;;;;;;;0.00;0.00;;;;;10.99;100.00;99987.41;5976070;23;45544;-89
2023/10/31 05:47:00;;;;;;;;;0.00;0.00;;;;;10.98;100.00;99983.13;5975897;23;45488;-88
2023/10/31 05:49:48;;;;;;;;;0.00;0.00;;;;;11.04;100.00;99995.03;5975697;23;47760;-89
2023/10/31 05:52:40;;;;;;;;;;;;;;;;;;;;;
2023/10/31 05:55:17;;;;;;;;;0.00;0.00;;;;;11.01;100.00;99985.59;6031449;23;67974;-89
2023/10/31 05:58:06;;;;;;;;;0.00;0.00;;;;;11.06;100.00;99994.97;6009196;23;45453;-88
2023/10/31 06:00:36;;;;;;;;;0.00;0.00;;;;;11.05;100.00;99991.53;6032643;23;46613;-89
2023/10/31 06:03:36;;;;;;;;;0.00;0.00;;;;;11.06;100.00;99985.38;6009480;23;45437;-88
2023/10/31 06:06:12;;;;;;;;;0.00;0.00;;;;;11.17;100.00;99997.94;6013689;23;45464;-88
2023/10/31 06:12:01;;;;;;;;;0.00;0.00;;;;;11.15;100.00;99990.19;6129147;23;46661;-88
2023/10/31 06:14:29;;;;;;;;;0.00;0.00;;;;;11.24;100.00;100000.22;6126134;23;45285;-89
2023/10/31 06:19:47;;;;;;;;;0.00;0.00;;;;;11.26;100.00;99991.50;6122114;23;45252;-89
2023/10/31 06:22:20;;;;;;;;;0.00;0.00;;;;;11.31;100.00;99994.72;6149854;23;48060;-89
2023/10/31 06:25:17;;;;;;;;;0.00;0.00;;;;;11.31;100.00;99999.94;6149271;23;45496;-88
2023/10/31 06:27:55;;;;;;;;;0.00;0.00;;;;;11.30;100.00;99999.09;6142112;22;45214;-89
2023/10/31 06:30:24;;;;;;;;;0.00;0.00;;;;;11.26;100.00;99988.91;6241928;22;45324;-88
2023/10/31 06:32:54;;;;;;;;;0.00;0.00;;;;;11.28;100.00;100000.94;6241641;22;46397;-88
2023/10/31 06:35:34;;;;;;;;;0.00;0.00;;;;;11.23;100.00;99995.06;6242967;22;45302;-89
2023/10/31 06:38:01;;;;;;;;;0.00;0.00;;;;;11.29;100.00;100009.59;6242820;22;45462;-88
2023/10/31 06:40:31;;;;;;;;;0.00;0.00;;;;;11.28;100.00;100019.16;6243324;22;45105;-89
2023/10/31 06:43:04;;;;;;;;;0.00;0.00;;;;;11.31;100.00;100015.56;6241587;22;46653;-88
2023/10/31 06:45:36;;;;;;;;;0.00;0.00;;;;;11.35;100.00;100009.34;6217052;22;45661;-89
2023/10/31 06:48:12;;;;;;;;;;;;;;;;;;;;;
2023/10/31 06:50:49;;;;;;;;;0.00;0.00;;;;;11.40;100.00;100026.47;6239171;22;70360;-89
2023/10/31 06:53:37;;;;;;;;;0.00;0.00;;;;;11.40;100.00;100026.47;6241376;22;46202;-89
2023/10/31 06:56:10;;;;;;;;;0.00;0.00;;;;;11.41;100.00;100027.31;6241685;22;45969;-88
2023/10/31 06:58:41;;;;;;;;;0.00;0.00;;;;;11.33;100.00;100006.81;6217729;22;45420;-88
2023/10/31 07:01:19;;;;;;;;;;;;;;;;;;;;;
2023/10/31 07:03:56;;;;;;;;;6.50;4.50;;;;;11.34;100.00;100024.09;6240843;22;75700;-88
2023/10/31 07:06:31;;;;;;;;;0.00;0.00;;;;;11.45;100.00;100035.84;6243003;22;45506;-89
2023/10/31 07:09:10;;;;;;;;;0.00;0.00;;;;;11.41;100.00;100022.94;6217210;22;45315;-89
2023/10/31 07:11:44;;;;;;;;;0.00;0.00;;;;;11.44;100.00;100035.00;6241696;22;45529;-89
2023/10/31 07:14:14;;;;;;;;;6.00;6.00;;;;;11.42;100.00;100042.88;6241447;22;45373;-88
2023/10/31 07:16:45;;;;;;;;;0.00;0.00;;;;;11.46;100.00;100050.53;6241432;22;45587;-88
2023/10/31 07:19:19;;;;;;;;;1.00;0.00;;;;;11.55;100.00;100066.66;6241750;22;45303;-88
2023/10/31 07:21:44;;;;;;;;;0.00;0.00;;;;;11.59;100.00;100070.81;6216777;22;45494;-89
2023/10/31 07:24:17;;;;;;;;;0.00;0.00;;;;;11.53;100.00;100065.84;6241416;22;45402;-89
2023/10/31 07:26:55;;;;;;;;;0.00;0.00;;;;;11.54;100.00;100067.56;6242803;22;45357;-88
2023/10/31 07:29:28;;;;;;;;;0.00;0.00;;;;;11.59;100.00;100068.19;6243608;22;45283;-88
2023/10/31 07:32:03;;;;;;;;;0.00;0.00;;;;;11.60;100.00;100067.28;6241738;22;45508;-88
2023/10/31 07:34:44;;;;;;;;;0.00;0.00;;;;;11.66;100.00;100078.34;6243034;22;47127;-89
2023/10/31 07:37:21;;;;;;;;;0.00;0.00;;;;;11.69;100.00;100070.41;6236252;22;45327;-88
2023/10/31 07:39:46;;;;;;;;;0.00;0.00;;;;;11.72;100.00;100068.50;6242025;22;45430;-88
2023/10/31 07:42:29;;;;;;;;;0.00;0.00;;;;;11.73;100.00;100080.63;6241440;22;45516;-89
2023/10/31 07:45:18;;;;;;;;;0.25;0.25;;;;;11.73;100.00;100083.22;6241426;22;45381;-89
2023/10/31 07:47:46;;;;;;;;;0.00;0.00;;;;;11.75;100.00;100091.81;6242182;22;45414;-88
2023/10/31 07:50:14;;;;;;;;;0.00;0.00;;;;;11.81;100.00;100101.13;6215966;22;45348;-88
2023/10/31 07:52:59;;;;;;;;;0.00;0.00;;;;;11.74;100.00;100090.16;6242768;22;45465;-89
2023/10/31 07:55:46;;;;;;;;;0.00;0.00;;;;;11.74;100.00;100099.72;6217561;22;48064;-89
2023/10/31 07:58:24;;;;;;;;;0.00;0.00;;;;;11.73;100.00;100088.44;6241467;22;45302;-89
2023/10/31 08:01:12;;;;;;;;;0.00;0.00;;;;;11.85;100.00;100104.44;6241395;22;45381;-89
2023/10/31 08:03:43;;;;;;;;;0.00;0.00;;;;;11.89;100.00;100109.47;6241642;22;45438;-89
2023/10/31 08:06:43;;;;;;;;;0.00;0.00;;;;;11.86;100.00;100100.94;6242158;22;45356;-89
2023/10/31 08:09:16;;;;;;;;;0.00;0.00;;;;;12.00;100.00;100122.09;6241041;22;45277;-89
2023/10/31 08:12:42;;;;;;;;;0.00;0.00;;;;;12.03;100.00;100128.91;6240874;22;45240;-89
2023/10/31 08:15:18;;;;;;;;;0.00;0.00;;;;;12.08;100.00;100125.19;6241863;22;45171;-88
2023/10/31 08:21:28;;;;;;;;;;;;;;;;;;;;;
2023/10/31 08:24:07;;;;;;;;;0.00;0.00;;;;;12.07;100.00;100133.94;6235497;22;45632;-88
2023/10/31 08:29:41;;;;;;;;;0.00;0.00;;;;;12.07;100.00;100144.38;6215101;22;46116;-88
2023/10/31 08:32:11;;;;;;;;;0.00;0.00;;;;;12.13;100.00;100159.75;6240763;22;45236;-88
2023/10/31 08:34:56;;;;;;;;;0.00;0.00;;;;;12.11;100.00;100151.13;6241848;22;45289;-89
2023/10/31 08:37:36;;;;;;;;;;;;;;;;;;;;;
2023/10/31 08:40:25;;;;;;;;;0.00;0.00;;;;;12.17;100.00;100166.50;6239955;22;75693;-89
2023/10/31 08:42:58;;;;;;;;;0.00;0.00;;;;;12.30;100.00;100161.59;6240863;22;45189;-89
2023/10/31 08:45:27;;;;;;;;;0.00;0.00;;;;;12.34;100.00;100163.13;6241281;22;45324;-89
2023/10/31 08:48:33;;;;;;;;;0.00;0.00;;;;;12.38;100.00;100162.06;6127028;22;45385;-90
2023/10/31 08:51:40;;;;;;;;;;;;;;;;;;;;;
2023/10/31 08:54:42;;;;;;;;;0.00;0.00;;;;;12.45;100.00;100169.66;6140054;23;71329;-89
2023/10/31 08:58:03;;;;;;;;;;;;;;;;;;;;;
2023/10/31 09:00:48;;;;;;;;;0.00;0.00;;;;;12.51;100.00;100180.63;6146585;23;70904;-89
2023/10/31 09:03:29;;;;;;;;;;;;;;;;;;;;;
2023/10/31 09:19:13;;;;;;;;;0.00;0.00;;;;;12.34;100.00;100199.69;6172538;22;45369;-88
2023/10/31 09:22:04;;;;;;;;;0.00;0.00;;;;;12.35;100.00;100206.59;6125816;23;45297;-89
2023/10/31 09:25:29;;;;;;;;;;;;;;;;;;;;;
2023/10/31 09:28:59;;;;;;;;;;;;;;;;;;;;;
2023/10/31 09:31:50;;;;;;;;;0.00;0.00;;;;;12.43;100.00;100216.69;6085599;23;45400;-89
2023/10/31 09:41:34;;;;;;;;;0.00;0.00;;;;;12.66;100.00;100222.63;5947001;23;46235;-90
2023/10/31 09:57:12;;;;;;;;;0.00;0.00;;;;;13.36;100.00;100253.31;5919534;24;45633;-89
2023/10/31 10:00:30;;;;;;;;;;;;;;;;;;;;;
2023/10/31 10:04:01;;;;;;;;;;;;;;;;;;;;;
2023/10/31 10:07:12;;;;;;;;;;;;;;;;;;;;;
2023/10/31 10:09:51;;;;;;;;;;;;;;;;;;;;;
2023/10/31 10:20:19;;;;;;;;;0.00;0.00;;;;;14.25;100.00;100284.66;5915799;24;46796;-90
2023/10/31 10:59:37;;;;;;;;;0.00;0.00;;;;;15.04;100.00;100317.22;6039064;23;45617;-90
2023/10/31 11:02:56;;;;;;;;;;;;;;;;;;;;;
2023/10/31 12:37:07;;;;;;;;;0.00;0.00;;;;;22.99;87.70;100360.03;5992686;23;47198;-92
2023/10/31 13:21:43;;;;;;;;;0.00;0.00;;;;;25.54;60.39;100386.31;6224321;22;1444433;-89
2023/10/31 13:24:15;;;;;;;;;0.25;0.25;;;;;23.59;64.75;100378.69;6254303;22;47391;-92
2023/10/31 13:26:41;;;;;;;;;0.00;0.00;;;;;22.30;69.53;100387.16;6282895;22;45415;-90
2023/10/31 13:29:06;;;;;;;;;0.00;0.00;;;;;21.52;72.86;100383.81;6229402;22;45338;-90
2023/10/31 13:31:31;;;;;;;;;0.00;0.00;;;;;21.04;77.22;100380.47;6255221;22;45688;-89
2023/10/31 13:33:57;;;;;;;;;0.00;0.00;;;;;20.78;77.92;100385.16;6229567;22;47923;-90
2023/10/31 13:36:22;;;;;;;;;0.00;0.00;;;;;20.60;79.89;100395.34;6282084;22;45267;-88
2023/10/31 13:38:48;;;;;;;;;0.00;0.00;;;;;20.47;80.76;100386.63;6254196;22;45212;-89
2023/10/31 13:41:17;;;;;;;;;0.00;0.00;;;;;20.50;79.37;100396.97;6282218;22;45239;-90
2023/10/31 13:43:42;;;;;;;;;0.00;0.00;;;;;20.56;79.52;100391.22;6282024;22;45354;-89
2023/10/31 13:46:10;;;;;;;;;0.00;0.00;;;;;20.31;80.89;100405.44;6282188;22;45296;-89
2023/10/31 13:48:35;;;;;;;;;0.00;0.00;;;;;20.08;81.10;100386.03;6255025;22;45321;-89
2023/10/31 13:51:01;;;;;;;;;0.00;0.00;;;;;20.08;81.17;100393.97;6255041;22;45452;-88
2023/10/31 13:53:26;;;;;;;;;0.75;0.00;;;;;20.26;81.85;100382.00;6228558;22;46910;-88
2023/10/31 13:55:52;;;;;;;;;0.00;0.00;;;;;20.67;82.92;100385.13;6282216;22;45222;-88
2023/10/31 13:58:17;;;;;;;;;0.00;0.00;;;;;20.86;80.47;100388.03;6229732;22;45217;-88
2023/10/31 14:00:45;;;;;;;;;0.00;0.00;;;;;20.75;81.35;100392.50;6229139;22;45310;-88
2023/10/31 14:03:10;;;;;;;;;0.00;0.00;;;;;20.33;82.03;100379.72;6251602;22;45231;-89
2023/10/31 14:05:36;;;;;;;;;0.00;0.00;;;;;19.81;84.25;100389.75;6247662;22;45347;-88
2023/10/31 14:08:01;;;;;;;;;0.00;0.00;;;;;19.29;85.54;100386.38;6247865;22;45232;-88
2023/10/31 14:10:27;;;;;;;;;0.00;0.00;;;;;18.88;88.20;100398.06;6249437;22;45311;-89
2023/10/31 14:12:53;;;;;;;;;0.00;0.00;;;;;18.55;90.32;100394.13;6222341;22;47615;-88
2023/10/31 14:15:18;;;;;;;;;0.00;0.00;;;;;18.24;92.34;100397.09;6247901;22;45303;-88
2023/10/31 14:17:44;;;;;;;;;0.00;0.00;;;;;17.99;93.36;100399.56;6247877;22;45363;-87
2023/10/31 14:20:10;;;;;;;;;0.00;0.00;;;;;17.73;95.46;100395.13;6218773;22;45340;-87
2023/10/31 14:22:35;;;;;;;;;0.00;0.00;;;;;17.55;97.23;100402.41;6247017;22;46850;-88
2023/10/31 14:25:04;;;;;;;;;0.00;0.00;;;;;17.39;97.88;100411.28;6246939;22;59139;-88
2023/10/31 14:27:32;;;;;;;;;0.00;0.00;;;;;17.22;100.00;100414.13;6273107;22;45373;-90
2023/10/31 14:29:57;;;;;;;;;0.00;0.00;;;;;17.16;100.00;100409.22;6247979;22;45388;-88
2023/10/31 14:32:23;;;;;;;;;0.00;0.00;;;;;17.13;100.00;100415.53;6247359;22;46210;-87
2023/10/31 14:34:48;;;;;;;;;0.00;0.00;;;;;17.08;100.00;100414.13;6247842;22;45436;-88
2023/10/31 14:37:14;;;;;;;;;0.00;0.00;;;;;16.98;100.00;100412.03;6247061;22;45251;-88
2023/10/31 14:39:39;;;;;;;;;0.00;0.00;;;;;16.96;100.00;100421.81;6247598;22;45363;-88
2023/10/31 14:42:04;;;;;;;;;0.00;0.00;;;;;16.88;100.00;100418.78;6247126;22;45390;-87
2023/10/31 14:44:30;;;;;;;;;0.00;0.00;;;;;16.81;100.00;100412.19;6274789;22;45310;-88
2023/10/31 14:46:55;;;;;;;;;1.67;0.00;;;;;16.86;100.00;100417.19;6274519;22;57179;-87
2023/10/31 14:49:21;;;;;;;;;3.00;0.00;;;;;16.98;100.00;100422.56;6273219;22;45401;-88
2023/10/31 14:51:46;;;;;;;;;0.00;0.00;;;;;17.25;100.00;100407.81;6221782;22;47023;-88
2023/10/31 14:54:12;;;;;;;;;0.00;0.00;;;;;17.48;100.00;100414.28;6222477;22;45241;-89
2023/10/31 14:56:38;;;;;;;;;4.00;4.00;;;;;17.61;100.00;100417.81;6247869;22;45191;-88
2023/10/31 14:59:12;;;;;;;;;0.00;0.00;;;;;17.54;100.00;100403.34;6248379;22;45538;-87
2023/10/31 15:01:37;;;;;;;;;0.00;0.00;;;;;17.48;100.00;100404.59;6273732;22;48187;-88
2023/10/31 15:04:03;;;;;;;;;0.00;0.00;;;;;17.41;100.00;100408.53;6248301;22;45296;-88
2023/10/31 15:06:28;;;;;;;;;0.00;0.00;;;;;17.36;100.00;100407.97;6275051;22;45396;-88
2023/10/31 15:08:54;;;;;;;;;0.00;0.00;;;;;17.33;100.00;100414.28;6248077;22;45450;-91
2023/10/31 15:11:19;;;;;;;;;0.00;0.00;;;;;17.27;100.00;100412.03;6247564;22;51450;-88
2023/10/31 15:13:47;;;;;;;;;0.00;0.00;;;;;17.19;100.00;100417.75;6221983;22;45275;-87
2023/10/31 15:16:13;;;;;;;;;0.00;0.00;;;;;17.08;100.00;100408.84;6221492;22;45409;-88
2023/10/31 15:18:38;;;;;;;;;1.00;1.00;;;;;16.94;100.00;100420.22;6222192;22;45397;-88
2023/10/31 15:21:04;;;;;;;;;0.00;0.00;;;;;16.81;100.00;100407.78;6246934;22;46875;-88
2023/10/31 15:23:30;;;;;;;;;0.00;0.00;;;;;16.72;100.00;100412.75;6274670;22;45359;-88
2023/10/31 15:26:05;;;;;;;;;0.00;0.00;;;;;16.66;100.00;100424.47;6280235;22;45239;-88
2023/10/31 15:28:30;;;;;;;;;0.00;0.00;;;;;16.51;100.00;100423.59;6247443;22;45464;-88
2023/10/31 15:30:56;;;;;;;;;0.00;0.00;;;;;16.39;100.00;100417.25;6222200;22;48151;-88
2023/10/31 15:33:24;;;;;;;;;0.00;0.00;;;;;16.24;100.00;100426.03;6247770;22;45521;-88
2023/10/31 15:35:49;;;;;;;;;0.00;0.00;;;;;16.19;100.00;100435.94;6221924;22;45390;-88
2023/10/31 15:38:15;;;;;;;;;0.00;0.00;;;;;16.09;100.00;100434.78;6274969;22;45253;-88
2023/10/31 15:40:41;;;;;;;;;0.00;0.00;;;;;15.97;100.00;100429.31;6248152;22;45185;-90
2023/10/31 15:43:07;;;;;;;;;0.00;0.00;;;;;16.01;100.00;100435.19;6253120;22;45260;-88
2023/10/31 15:45:39;;;;;;;;;0.00;0.00;;;;;16.02;100.00;100434.28;6253651;22;45332;-88
2023/10/31 15:48:05;;;;;;;;;0.00;0.00;;;;;15.95;100.00;100428.53;6283396;22;45481;-87
2023/10/31 15:50:30;;;;;;;;;0.00;0.00;;;;;15.93;100.00;100437.44;6276613;22;46201;-88
2023/10/31 15:52:56;;;;;;;;;0.00;0.00;;;;;15.86;100.00;100436.91;6224213;22;45332;-88
2023/10/31 15:55:22;;;;;;;;;0.00;0.00;;;;;15.79;100.00;100438.22;6247643;22;45255;-88
2023/10/31 15:57:47;;;;;;;;;0.00;0.00;;;;;15.77;100.00;100443.53;6247191;22;45319;-88
2023/10/31 16:00:13;;;;;;;;;0.00;0.00;;;;;15.66;100.00;100435.38;6222772;22;47115;-88
2023/10/31 16:02:38;;;;;;;;;0.00;0.00;;;;;15.59;100.00;100439.28;6274701;22;45451;-88
2023/10/31 16:05:04;;;;;;;;;0.00;0.00;;;;;15.53;100.00;100429.13;6246643;22;48619;-88
2023/10/31 16:07:29;;;;;;;;;0.25;0.00;;;;;15.50;100.00;100435.34;6273537;22;45588;-89
2023/10/31 16:09:55;;;;;;;;;0.00;0.00;;;;;15.45;100.00;100440.88;6248272;22;46102;-88
2023/10/31 16:12:20;;;;;;;;;0.00;0.00;;;;;15.38;100.00;100441.25;6254414;22;46579;-88
2023/10/31 16:14:46;;;;;;;;;0.00;0.00;;;;;15.32;100.00;100437.19;6262740;22;45284;-89
2023/10/31 16:17:11;;;;;;;;;0.00;0.00;;;;;15.24;100.00;100432.34;6264494;22;44893;-88
2023/10/31 16:19:36;;;;;;;;;0.00;0.00;;;;;15.21;100.00;100437.78;6225464;22;46896;-87
2023/10/31 16:22:02;;;;;;;;;0.00;0.00;;;;;15.16;100.00;100433.72;6221366;22;45347;-88
2023/10/31 16:24:27;;;;;;;;;0.00;0.00;;;;;15.13;100.00;100436.50;6247691;22;45269;-88
2023/10/31 16:26:52;;;;;;;;;0.00;0.00;;;;;15.07;100.00;100440.28;6246475;22;45904;-87
2023/10/31 16:29:18;;;;;;;;;0.00;0.00;;;;;15.01;100.00;100438.00;6246765;22;47670;-87
2023/10/31 16:31:44;;;;;;;;;0.00;0.00;;;;;14.97;100.00;100431.19;6220911;22;48510;-87
2023/10/31 16:34:12;;;;;;;;;0.00;0.00;;;;;14.95;100.00;100441.78;6247236;22;45281;-87
2023/10/31 16:36:38;;;;;;;;;0.00;0.00;;;;;14.92;100.00;100433.22;6246976;22;45386;-88
2023/10/31 16:39:04;;;;;;;;;0.00;0.00;;;;;14.83;100.00;100431.91;6247129;22;45303;-88
2023/10/31 16:41:30;;;;;;;;;0.00;0.00;;;;;14.82;100.00;100432.81;6247144;22;45338;-87
2023/10/31 16:43:55;;;;;;;;;0.00;0.00;;;;;14.80;100.00;100432.06;6246592;22;58419;-86
2023/10/31 16:46:21;;;;;;;;;0.00;0.00;;;;;14.78;100.00;100428.69;6246086;22;56342;-87
2023/10/31 16:48:46;;;;;;;;;0.00;0.00;;;;;14.76;100.00;100426.13;6246716;22;46942;-87
2023/10/31 16:51:19;;;;;;;;;0.00;0.00;;;;;14.79;100.00;100435.63;6221018;22;45237;-88
2023/10/31 16:53:50;;;;;;;;;1.00;1.00;;;;;14.75;100.00;100432.31;6247585;22;45490;-88
2023/10/31 16:56:16;;;;;;;;;0.00;0.00;;;;;14.73;100.00;100436.78;6247676;22;45358;-87
2023/10/31 16:58:42;;;;;;;;;0.00;0.00;;;;;14.73;100.00;100439.41;6246687;22;46529;-88
2023/10/31 17:01:08;;;;;;;;;0.00;0.00;;;;;14.76;100.00;100443.63;6274427;22;45432;-88
2023/10/31 17:03:33;;;;;;;;;0.00;0.00;;;;;14.72;100.00;100437.69;6247475;22;45697;-88
2023/10/31 17:05:59;;;;;;;;;0.00;0.00;;;;;14.73;100.00;100433.28;6247146;22;45244;-88
2023/10/31 17:08:24;;;;;;;;;0.00;0.00;;;;;14.71;100.00;100430.78;6246652;22;45980;-87
2023/10/31 17:10:50;;;;;;;;;0.00;0.00;;;;;14.73;100.00;100444.66;6274136;22;45252;-88
2023/10/31 17:13:15;;;;;;;;;7.00;0.75;;;;;14.70;100.00;100443.00;6246639;22;45387;-87
2023/10/31 17:15:40;;;;;;;;;0.00;0.00;;;;;14.71;100.00;100438.63;6250366;22;45439;-87
2023/10/31 17:18:06;;;;;;;;;0.00;0.00;;;;;14.73;100.00;100442.03;6220252;22;67333;-88
2023/10/31 17:20:32;;;;;;;;;0.00;0.00;;;;;14.70;100.00;100431.69;6246506;22;45388;-87
2023/10/31 17:22:57;;;;;;;;;0.00;0.00;;;;;14.71;100.00;100431.63;6247385;22;45292;-88
2023/10/31 17:25:22;;;;;;;;;0.00;0.00;;;;;14.71;100.00;100428.16;6221195;22;45468;-88
2023/10/31 17:27:48;;;;;;;;;0.00;0.00;;;;;14.71;100.00;100423.75;6220719;22;50361;-89
2023/10/31 17:30:23;;;;;;;;;0.00;0.00;;;;;14.70;100.00;100422.06;6221078;22;45458;-89
2023/10/31 17:32:48;;;;;;;;;0.00;0.00;;;;;14.71;100.00;100422.91;6275596;22;45300;-88
2023/10/31 17:35:13;;;;;;;;;0.00;0.00;;;;;14.69;100.00;100416.88;6246996;22;45480;-88
2023/10/31 17:37:39;;;;;;;;;0.00;0.00;;;;;14.67;100.00;100418.75;6273458;22;46285;-90
2023/10/31 17:40:14;;;;;;;;;0.00;0.00;;;;;14.64;100.00;100422.38;6248366;22;45258;-89
2023/10/31 17:42:39;;;;;;;;;0.00;0.00;;;;;14.70;100.00;100422.06;6275860;22;45235;-89
2023/10/31 17:45:24;;;;;;;;;0.00;0.00;;;;;14.69;100.00;100424.75;6246877;22;55508;-88
2023/10/31 17:47:54;;;;;;;;;0.00;0.00;;;;;14.68;100.00;100423.06;6274730;22;47110;-88
2023/10/31 17:50:20;;;;;;;;;0.00;0.00;;;;;14.68;100.00;100428.31;6248599;22;45359;-88
2023/10/31 17:52:48;;;;;;;;;0.00;0.00;;;;;14.66;100.00;100425.75;6247723;22;45490;-88
2023/10/31 17:55:18;;;;;;;;;0.00;0.00;;;;;14.69;100.00;100429.97;6247815;22;45194;-89
2023/10/31 17:57:44;;;;;;;;;0.00;0.00;;;;;14.67;100.00;100430.09;6247634;22;46115;-89
2023/10/31 18:00:11;;;;;;;;;0.00;0.00;;;;;14.70;100.00;100431.69;6226290;22;49358;-89
2023/10/31 18:02:36;;;;;;;;;0.00;0.00;;;;;14.65;100.00;100433.69;6248345;22;45274;-90
2023/10/31 18:05:08;;;;;;;;;0.00;0.00;;;;;14.70;100.00;100439.56;6247084;22;64538;-89
2023/10/31 18:07:34;;;;;;;;;0.75;0.75;;;;;14.68;100.00;100447.47;6273432;22;46309;-88
2023/10/31 18:09:59;;;;;;;;;0.00;0.00;;;;;14.66;100.00;100449.34;6247690;22;50108;-89
2023/10/31 18:12:24;;;;;;;;;4.00;0.00;;;;;14.67;100.00;100456.28;6248383;22;45770;-88
2023/10/31 18:14:53;;;;;;;;;0.00;0.00;;;;;14.69;100.00;100464.03;6246305;22;54235;-88
2023/10/31 18:17:18;;;;;;;;;0.00;0.00;;;;;14.63;100.00;100457.34;6221549;22;51791;-89
2023/10/31 18:19:43;;;;;;;;;0.00;0.00;;;;;14.64;100.00;100464.28;6221161;22;56998;-88
2023/10/31 18:22:15;;;;;;;;;0.00;0.00;;;;;14.55;100.00;100464.72;6275201;22;45216;-89
2023/10/31 18:24:42;;;;;;;;;0.00;0.00;;;;;14.50;100.00;100464.09;6221855;22;45432;-88
2023/10/31 18:27:19;;;;;;;;;0.00;0.00;;;;;14.49;100.00;100471.09;6247692;22;48372;-94
2023/10/31 18:29:52;;;;;;;;;0.00;0.00;;;;;14.49;100.00;100476.34;6247774;22;45263;-92
2023/10/31 18:32:29;;;;;;;;;0.00;0.00;;;;;14.48;100.00;100476.41;6219980;22;45396;-88
2023/10/31 18:34:57;;;;;;;;;0.00;0.00;;;;;14.46;100.00;100459.94;6247674;22;45463;-87
2023/10/31 18:37:23;;;;;;;;;0.00;0.00;;;;;14.42;100.00;100459.22;6247656;22;45479;-88
2023/10/31 18:39:51;;;;;;;;;0.00;0.00;;;;;14.45;100.00;100450.38;6222035;22;45438;-88
2023/10/31 18:42:20;;;;;;;;;0.00;0.00;;;;;14.41;100.00;100459.31;6221381;22;45367;-88
2023/10/31 18:44:48;;;;;;;;;0.00;0.00;;;;;14.45;100.00;100460.84;6247924;22;45547;-88
2023/10/31 18:47:23;;;;;;;;;0.00;0.00;;;;;14.39;100.00;100454.13;6248145;22;45429;-89